createdAt,value
2023-02-09T00:00:07.428Z,95037.91
2023-02-09T00:02:33.921Z,95036.00
2023-02-09T00:05:00.346Z,95029.00
2023-02-09T00:07:26.802Z,95041.53
2023-02-09T00:09:53.184Z,95022.41
2023-02-09T00:12:38.368Z,95045.13
2023-02-09T00:15:06.398Z,95057.94
2023-02-09T00:17:35.751Z,95058.47
2023-02-09T00:20:04.983Z,95031.91
2023-02-09T00:22:31.742Z,95086.53
2023-02-09T00:24:58.233Z,95063.41
2023-02-09T00:27:24.645Z,95021.75
2023-02-09T00:29:51.272Z,95040.84
2023-02-09T00:32:39.519Z,95084.78
2023-02-09T00:35:07.822Z,95040.31
2023-02-09T00:37:35.172Z,95012.63
2023-02-09T00:40:01.592Z,95013.00
2023-02-09T00:42:28.011Z,95042.81
2023-02-09T00:44:54.431Z,95023.75
2023-02-09T00:47:20.831Z,95026.03
2023-02-09T00:49:47.218Z,95041.41
2023-02-09T00:52:13.615Z,95067.22
2023-02-09T00:54:40.030Z,95054.47
2023-02-09T00:57:06.445Z,95076.06
2023-02-09T00:59:34.934Z,95066.38
2023-02-09T01:02:02.414Z,95086.00
2023-02-09T01:04:28.941Z,95036.88
2023-02-09T01:06:55.506Z,95058.34
2023-02-09T01:09:22.064Z,95033.03
2023-02-09T01:11:48.497Z,95075.56
2023-02-09T01:14:15.048Z,95064.72
2023-02-09T01:16:41.541Z,95049.34
2023-02-09T01:19:08.018Z,95067.41
2023-02-09T01:21:34.443Z,95026.22
2023-02-09T01:24:00.894Z,95062.00
2023-02-09T01:26:27.946Z,95073.56
2023-02-09T01:28:54.929Z,95071.72
2023-02-09T01:31:27.945Z,95075.88
2023-02-09T01:33:56.599Z,95034.28
2023-02-09T01:36:23.483Z,95008.81
2023-02-09T01:38:50.632Z,95065.69
2023-02-09T01:41:18.011Z,95062.56
2023-02-09T01:44:01.158Z,95065.78
2023-02-09T01:46:30.408Z,95069.31
2023-02-09T01:49:03.840Z,95041.44
2023-02-09T01:51:34.850Z,95045.19
2023-02-09T01:54:06.425Z,95045.94
2023-02-09T01:56:33.308Z,95019.59
2023-02-09T01:58:59.878Z,95026.09
2023-02-09T02:01:26.740Z,95050.91
2023-02-09T02:03:54.062Z,95056.34
2023-02-09T02:06:20.814Z,95004.94
2023-02-09T02:08:55.369Z,95039.19
2023-02-09T02:11:23.991Z,95020.47
2023-02-09T02:13:50.646Z,95008.94
2023-02-09T02:16:32.546Z,95054.19
2023-02-09T02:19:17.128Z,95039.19
2023-02-09T02:22:09.230Z,95040.16
2023-02-09T02:25:20.198Z,95035.31
2023-02-09T02:27:55.563Z,95025.50
2023-02-09T02:30:43.453Z,95028.81
2023-02-09T02:33:28.274Z,95029.84
2023-02-09T02:36:08.192Z,95011.34
2023-02-09T02:38:43.474Z,94986.81
2023-02-09T02:41:19.634Z,95019.72
2023-02-09T02:44:05.454Z,95002.13
2023-02-09T02:46:54.022Z,94972.03
2023-02-09T02:49:44.890Z,95025.00
2023-02-09T02:52:11.932Z,95014.88
2023-02-09T02:54:47.729Z,94945.91
2023-02-09T02:57:16.945Z,95007.06
2023-02-09T02:59:53.486Z,95015.44
2023-02-09T03:02:23.480Z,94997.25
2023-02-09T03:04:55.046Z,94981.41
2023-02-09T03:07:21.500Z,94969.25
2023-02-09T03:09:52.293Z,94965.97
2023-02-09T03:12:34.301Z,95005.41
2023-02-09T03:15:48.374Z,94969.88
2023-02-09T03:18:47.834Z,95017.72
2023-02-09T03:21:28.884Z,94986.03
2023-02-09T03:24:20.401Z,95019.69
2023-02-09T03:26:56.027Z,94999.56
2023-02-09T03:29:25.113Z,94989.41
2023-02-09T03:31:52.139Z,95032.63
2023-02-09T03:34:18.842Z,94982.03
2023-02-09T03:36:51.781Z,95024.25
2023-02-09T03:39:18.294Z,95015.97
2023-02-09T03:41:44.713Z,95014.34
2023-02-09T03:44:29.154Z,94995.50
2023-02-09T03:47:03.220Z,94976.50
2023-02-09T03:49:33.597Z,95036.63
2023-02-09T03:52:01.257Z,95019.06
2023-02-09T03:54:29.577Z,94992.09
2023-02-09T03:56:57.039Z,95024.88
2023-02-09T03:59:25.206Z,95030.75
2023-02-09T04:01:53.680Z,95002.94
2023-02-09T04:04:20.796Z,94953.50
2023-02-09T04:06:47.587Z,94994.69
2023-02-09T04:09:14.439Z,95036.03
2023-02-09T04:11:40.850Z,94985.13
2023-02-09T04:14:09.054Z,94981.91
2023-02-09T04:16:36.767Z,95009.16
2023-02-09T04:19:04.687Z,95026.53
2023-02-09T04:21:31.929Z,95040.75
2023-02-09T04:23:58.393Z,95034.81
2023-02-09T04:26:24.848Z,95012.19
2023-02-09T04:28:51.317Z,95015.41
2023-02-09T04:31:18.563Z,94972.41
2023-02-09T04:33:45.061Z,95046.16
2023-02-09T04:36:12.194Z,95012.19
2023-02-09T04:38:38.741Z,94997.66
2023-02-09T04:41:05.570Z,95018.16
2023-02-09T04:43:33.256Z,95023.84
2023-02-09T04:46:00.632Z,95060.44
2023-02-09T04:48:29.146Z,95065.41
2023-02-09T04:50:55.924Z,95015.78
2023-02-09T04:53:24.198Z,95060.78
2023-02-09T04:55:51.790Z,95063.63
2023-02-09T04:58:38.458Z,95037.63
2023-02-09T05:01:05.405Z,95026.59
2023-02-09T05:03:31.927Z,95062.41
2023-02-09T05:06:03.330Z,95066.72
2023-02-09T05:08:30.531Z,95065.09
2023-02-09T05:10:57.534Z,95047.25
2023-02-09T05:13:25.508Z,95068.59
2023-02-09T05:15:53.791Z,95064.47
2023-02-09T05:18:20.422Z,95040.91
2023-02-09T05:20:48.309Z,95071.47
2023-02-09T05:23:15.108Z,95055.72
2023-02-09T05:25:41.947Z,95025.31
2023-02-09T05:28:08.541Z,95080.91
2023-02-09T05:30:35.136Z,95079.84
2023-02-09T05:33:03.202Z,95073.25
2023-02-09T05:35:29.698Z,95069.22
2023-02-09T05:37:56.137Z,95017.28
2023-02-09T05:40:22.655Z,95025.53
2023-02-09T05:42:49.086Z,95046.16
2023-02-09T05:45:15.554Z,95044.72
2023-02-09T05:47:42.001Z,95049.47
2023-02-09T05:50:08.619Z,95082.75
2023-02-09T05:52:35.108Z,95036.25
2023-02-09T05:55:01.597Z,95037.91
2023-02-09T05:57:28.023Z,95048.56
2023-02-09T05:59:54.481Z,95049.03
2023-02-09T06:02:21.067Z,95048.31
2023-02-09T06:04:49.583Z,95064.88
2023-02-09T06:07:16.090Z,95064.94
2023-02-09T06:09:48.703Z,95066.53
2023-02-09T06:12:15.091Z,95089.69
2023-02-09T06:14:41.619Z,95060.13
2023-02-09T06:17:07.982Z,95064.88
2023-02-09T06:19:34.359Z,95055.16
2023-02-09T06:22:00.942Z,95091.75
2023-02-09T06:24:27.557Z,95060.97
2023-02-09T06:26:54.019Z,95108.28
2023-02-09T06:29:20.447Z,95072.00
2023-02-09T06:31:46.980Z,95095.13
2023-02-09T06:34:13.555Z,95110.81
2023-02-09T06:36:39.997Z,95067.16
2023-02-09T06:39:08.283Z,95104.25
2023-02-09T06:41:34.817Z,95051.75
2023-02-09T06:44:01.223Z,95113.16
2023-02-09T06:46:28.607Z,95097.78
2023-02-09T06:48:55.354Z,95088.34
2023-02-09T06:51:21.980Z,95079.56
2023-02-09T06:53:48.590Z,95089.88
2023-02-09T06:56:15.290Z,95084.72
2023-02-09T06:58:41.964Z,95074.59
2023-02-09T07:01:10.998Z,95132.81
2023-02-09T07:03:37.838Z,95127.03
2023-02-09T07:06:12.826Z,95099.31
2023-02-09T07:08:40.728Z,95083.69
2023-02-09T07:11:11.193Z,95108.28
2023-02-09T07:13:37.985Z,95130.53
2023-02-09T07:16:06.695Z,95139.63
2023-02-09T07:18:34.281Z,95108.19
2023-02-09T07:21:03.632Z,95123.00
2023-02-09T07:23:30.701Z,95140.88
2023-02-09T07:26:01.087Z,95125.66
2023-02-09T07:28:27.558Z,95084.09
2023-02-09T07:30:54.114Z,95103.94
2023-02-09T07:33:22.113Z,95140.00
2023-02-09T07:35:48.866Z,95070.00
2023-02-09T07:38:15.685Z,95126.75
2023-02-09T07:40:46.407Z,95137.22
2023-02-09T07:43:18.032Z,95057.50
2023-02-09T07:45:44.671Z,95130.19
2023-02-09T07:48:11.690Z,95120.31
2023-02-09T07:50:38.394Z,95128.94
2023-02-09T07:53:04.824Z,95102.16
2023-02-09T07:55:31.261Z,95136.38
2023-02-09T07:57:57.632Z,95104.34
2023-02-09T08:00:25.501Z,95099.66
2023-02-09T08:02:52.499Z,95141.28
2023-02-09T08:05:31.634Z,95125.69
2023-02-09T08:07:58.591Z,95122.50
2023-02-09T08:10:26.139Z,95125.19
2023-02-09T08:13:01.982Z,95112.50
2023-02-09T08:15:31.619Z,95137.03
2023-02-09T08:18:02.294Z,95125.81
2023-02-09T08:20:31.764Z,95107.88
2023-02-09T08:23:04.866Z,95132.34
2023-02-09T08:25:31.931Z,95119.88
2023-02-09T08:27:59.425Z,95141.50
2023-02-09T08:30:25.926Z,95145.34
2023-02-09T08:32:52.314Z,95121.69
2023-02-09T08:35:18.772Z,95131.56
2023-02-09T08:37:45.158Z,95131.31
2023-02-09T08:40:12.443Z,95157.56
2023-02-09T08:42:38.838Z,95146.97
2023-02-09T08:45:06.147Z,95131.06
2023-02-09T08:47:32.572Z,95143.50
2023-02-09T08:49:59.334Z,95140.69
2023-02-09T08:52:26.184Z,95136.09
2023-02-09T08:54:52.579Z,95117.75
2023-02-09T08:57:19.082Z,95107.69
2023-02-09T08:59:45.518Z,95120.25
2023-02-09T09:02:11.922Z,95128.47
2023-02-09T09:04:38.300Z,95108.72
2023-02-09T09:07:04.677Z,95142.88
2023-02-09T09:09:31.048Z,95118.22
2023-02-09T09:11:57.437Z,95150.69
2023-02-09T09:14:26.457Z,95136.50
2023-02-09T09:16:53.367Z,95099.41
2023-02-09T09:19:19.998Z,95118.84
2023-02-09T09:21:46.392Z,95133.03
2023-02-09T09:24:12.789Z,95130.31
2023-02-09T09:26:39.261Z,95127.06
2023-02-09T09:29:05.695Z,95114.66
2023-02-09T09:31:33.488Z,95094.47
2023-02-09T09:34:00.131Z,95142.31
2023-02-09T09:36:26.523Z,95125.22
2023-02-09T09:38:52.930Z,95118.09
2023-02-09T09:41:28.296Z,95162.06
2023-02-09T09:43:55.254Z,95142.63
2023-02-09T09:46:32.826Z,95151.03
2023-02-09T09:48:59.878Z,95098.00
2023-02-09T09:52:04.782Z,95160.88
2023-02-09T09:54:34.248Z,95167.81
2023-02-09T09:57:01.962Z,95074.81
2023-02-09T09:59:34.773Z,95146.25
2023-02-09T10:02:18.987Z,95137.91
2023-02-09T10:04:45.598Z,95133.19
2023-02-09T10:07:19.608Z,95149.66
2023-02-09T10:09:53.759Z,95156.84
2023-02-09T10:12:37.748Z,95158.03
2023-02-09T10:15:36.600Z,95136.06
2023-02-09T10:18:10.436Z,95132.03
2023-02-09T10:20:50.934Z,95149.41
2023-02-09T10:23:19.467Z,95152.19
2023-02-09T10:25:54.915Z,95129.00
2023-02-09T10:28:31.589Z,95124.66
2023-02-09T10:31:02.289Z,95149.81
2023-02-09T10:33:37.010Z,95150.28
2023-02-09T10:36:08.628Z,95121.69
2023-02-09T10:38:39.972Z,95115.84
2023-02-09T10:41:10.239Z,95118.38
2023-02-09T10:43:36.807Z,95116.66
2023-02-09T10:46:11.931Z,95141.50
2023-02-09T10:48:44.342Z,95142.66
2023-02-09T10:51:29.214Z,95132.19
2023-02-09T10:53:55.647Z,95132.13
2023-02-09T10:56:25.164Z,95107.59
2023-02-09T10:59:00.351Z,95130.41
2023-02-09T11:01:31.070Z,95118.47
2023-02-09T11:04:02.089Z,95130.66
2023-02-09T11:06:41.023Z,95121.03
2023-02-09T11:09:14.330Z,95113.19
2023-02-09T11:11:43.077Z,95115.06
2023-02-09T11:14:15.641Z,95094.69
2023-02-09T11:17:06.433Z,95124.91
2023-02-09T11:19:46.135Z,95127.03
2023-02-09T11:22:16.276Z,95108.75
2023-02-09T11:25:27.537Z,95105.81
2023-02-09T11:27:56.942Z,95117.22
2023-02-09T11:30:54.171Z,95116.41
2023-02-09T11:33:23.452Z,95113.81
2023-02-09T11:36:21.377Z,95106.50
2023-02-09T11:39:08.010Z,95117.06
2023-02-09T11:42:03.215Z,95109.63
2023-02-09T11:44:41.462Z,95090.50
2023-02-09T11:47:15.393Z,95106.25
2023-02-09T11:49:50.887Z,95074.25
2023-02-09T11:52:30.554Z,95104.22
2023-02-09T11:55:02.568Z,95111.72
2023-02-09T11:57:50.548Z,95075.63
2023-02-09T12:00:24.356Z,95097.56
2023-02-09T12:02:53.767Z,95093.19
2023-02-09T12:05:21.776Z,95087.00
2023-02-09T12:08:19.059Z,95097.16
2023-02-09T12:11:19.567Z,95093.63
2023-02-09T12:14:03.624Z,95098.25
2023-02-09T12:16:42.673Z,95044.63
2023-02-09T12:19:26.342Z,95071.22
2023-02-09T12:21:52.808Z,95073.13
2023-02-09T12:24:40.180Z,95091.81
2023-02-09T12:27:25.297Z,95076.97
2023-02-09T12:29:51.822Z,95077.28
2023-02-09T12:32:42.274Z,95074.56
2023-02-09T12:35:28.071Z,95076.16
2023-02-09T12:38:51.608Z,95074.78
2023-02-09T12:41:19.978Z,95066.34
2023-02-09T12:43:46.810Z,95038.84
2023-02-09T12:46:18.023Z,95034.69
2023-02-09T12:48:51.471Z,95022.66
2023-02-09T12:51:39.771Z,95060.34
2023-02-09T12:54:33.926Z,95059.72
2023-02-09T12:57:15.654Z,95064.94
2023-02-09T13:00:04.911Z,95042.03
2023-02-09T13:02:49.792Z,95054.63
2023-02-09T13:05:22.292Z,95052.75
2023-02-09T13:08:03.828Z,95055.97
2023-02-09T13:10:55.511Z,95060.09
2023-02-09T13:13:35.971Z,95038.00
2023-02-09T13:16:11.646Z,95047.84
2023-02-09T13:18:54.178Z,95062.84
2023-02-09T13:21:29.729Z,95047.69
2023-02-09T13:24:52.054Z,95050.00
2023-02-09T13:27:23.565Z,95045.09
2023-02-09T13:29:55.347Z,95059.31
2023-02-09T13:32:29.227Z,95059.56
2023-02-09T13:35:22.870Z,95068.56
2023-02-09T13:37:54.223Z,95045.91
2023-02-09T13:40:32.977Z,95027.63
2023-02-09T13:43:11.526Z,95061.19
2023-02-09T13:45:53.383Z,95057.13
2023-02-09T13:48:32.639Z,95061.59
2023-02-09T13:51:03.250Z,95062.84
2023-02-09T13:53:31.919Z,95056.44
2023-02-09T13:56:00.512Z,95061.19
2023-02-09T13:58:35.273Z,95063.91
2023-02-09T14:01:09.093Z,95067.75
2023-02-09T14:03:58.895Z,94982.91
2023-02-09T14:06:33.379Z,95066.66
2023-02-09T14:09:03.109Z,95047.03
2023-02-09T14:11:42.276Z,95078.66
2023-02-09T14:14:17.896Z,95073.75
2023-02-09T14:16:53.574Z,95073.47
2023-02-09T14:19:31.975Z,95048.66
2023-02-09T14:21:58.576Z,95041.84
2023-02-09T14:24:27.491Z,95065.03
2023-02-09T14:26:53.951Z,95075.38
2023-02-09T14:29:29.503Z,95074.00
2023-02-09T14:32:32.011Z,95073.31
2023-02-09T14:35:19.840Z,95047.53
2023-02-09T14:37:47.541Z,95085.41
2023-02-09T14:40:21.498Z,95074.50
2023-02-09T14:43:21.993Z,95077.88
2023-02-09T14:45:58.678Z,95046.41
2023-02-09T14:48:28.923Z,95047.09
2023-02-09T14:50:57.419Z,95082.59
2023-02-09T14:53:28.173Z,95051.19
2023-02-09T14:55:55.863Z,95047.81
2023-02-09T14:58:27.081Z,95073.72
2023-02-09T15:00:56.720Z,95049.41
2023-02-09T15:03:23.589Z,95049.94
2023-02-09T15:05:54.441Z,95053.84
2023-02-09T15:08:24.064Z,95068.69
2023-02-09T15:10:57.453Z,95047.28
2023-02-09T15:13:24.369Z,95033.91
2023-02-09T15:15:50.797Z,95050.81
2023-02-09T15:18:26.032Z,95028.28
2023-02-09T15:20:52.585Z,95056.22
2023-02-09T15:23:20.077Z,95032.50
2023-02-09T15:25:47.952Z,95042.34
2023-02-09T15:28:24.596Z,95085.47
2023-02-09T15:30:51.158Z,95080.81
2023-02-09T15:33:17.602Z,95069.03
2023-02-09T15:35:44.414Z,95074.06
2023-02-09T15:38:14.865Z,95090.56
2023-02-09T15:41:06.115Z,95081.00
2023-02-09T15:43:51.560Z,95109.63
2023-02-09T15:46:39.302Z,95075.84
2023-02-09T15:49:05.807Z,95111.38
2023-02-09T15:51:36.944Z,95114.06
2023-02-09T15:54:07.785Z,95111.53
2023-02-09T15:56:36.588Z,95106.50
2023-02-09T15:59:05.394Z,95092.84
2023-02-09T16:01:34.411Z,95115.06
2023-02-09T16:04:13.392Z,95124.19
2023-02-09T16:06:44.097Z,95103.75
2023-02-09T16:09:17.697Z,95110.41
2023-02-09T16:11:44.305Z,95108.25
2023-02-09T16:14:17.255Z,95118.81
2023-02-09T16:16:45.696Z,95136.25
2023-02-09T16:19:13.237Z,95136.00
2023-02-09T16:21:42.550Z,95139.47
2023-02-09T16:24:21.300Z,95121.50
2023-02-09T16:26:48.050Z,95148.09
2023-02-09T16:29:15.347Z,95136.78
2023-02-09T16:31:41.776Z,95131.88
2023-02-09T16:34:09.385Z,95145.59
2023-02-09T16:36:35.956Z,95122.59
2023-02-09T16:39:03.533Z,95130.59
2023-02-09T16:41:49.681Z,95148.03
2023-02-09T16:44:26.060Z,95167.50
2023-02-09T16:46:55.430Z,95169.94
2023-02-09T16:49:34.630Z,95160.97
2023-02-09T16:52:04.804Z,95177.81
2023-02-09T16:54:37.385Z,95136.88
2023-02-09T16:57:04.386Z,95182.94
2023-02-09T16:59:30.784Z,95173.25
2023-02-09T17:01:59.794Z,95186.63
2023-02-09T17:04:26.338Z,95182.59
2023-02-09T17:06:53.002Z,95142.28
2023-02-09T17:09:19.437Z,95201.06
2023-02-09T17:11:47.974Z,95197.53
2023-02-09T17:14:14.399Z,95197.53
2023-02-09T17:16:49.422Z,95159.72
2023-02-09T17:19:18.148Z,95190.34
2023-02-09T17:21:44.627Z,95199.72
2023-02-09T17:24:16.223Z,95227.34
2023-02-09T17:26:43.890Z,95223.00
2023-02-09T17:29:11.082Z,95191.88
2023-02-09T17:31:52.022Z,95211.28
2023-02-09T17:34:26.898Z,95233.97
2023-02-09T17:36:53.571Z,95218.22
2023-02-09T17:39:20.096Z,95211.09
2023-02-09T17:41:48.537Z,95236.38
2023-02-09T17:44:45.996Z,95196.91
2023-02-09T17:47:07.124Z,95228.31
2023-02-09T17:49:34.906Z,95229.22
2023-02-09T17:52:01.327Z,95199.91
2023-02-09T17:54:27.982Z,95231.97
2023-02-09T17:56:54.505Z,95222.41
2023-02-09T17:59:21.287Z,95204.84
2023-02-09T18:01:54.986Z,95251.72
2023-02-09T18:04:26.666Z,95247.50
2023-02-09T18:06:53.215Z,95246.38
2023-02-09T18:09:20.022Z,95256.66
2023-02-09T18:11:46.464Z,95264.34
2023-02-09T18:14:17.325Z,95201.38
2023-02-09T18:16:47.046Z,95264.69
2023-02-09T18:19:28.830Z,95230.28
2023-02-09T18:22:03.754Z,95268.66
2023-02-09T18:24:34.287Z,95248.44
2023-02-09T18:27:05.132Z,95256.69
2023-02-09T18:29:33.598Z,95250.13
2023-02-09T18:32:02.170Z,95277.97
2023-02-09T18:34:29.116Z,95222.06
2023-02-09T18:36:55.599Z,95245.50
2023-02-09T18:39:22.045Z,95248.72
2023-02-09T18:41:54.022Z,95267.97
2023-02-09T18:44:24.313Z,95253.44
2023-02-09T18:46:50.766Z,95246.38
2023-02-09T18:49:18.154Z,95251.56
2023-02-09T18:51:44.625Z,95256.06
2023-02-09T18:54:11.291Z,95283.41
2023-02-09T18:56:39.752Z,95263.03
2023-02-09T18:59:06.259Z,95283.00
2023-02-09T19:01:36.619Z,95275.06
2023-02-09T19:04:03.093Z,95284.47
2023-02-09T19:06:29.529Z,95287.44
2023-02-09T19:08:55.961Z,95283.00
2023-02-09T19:11:23.358Z,95253.47
2023-02-09T19:14:08.460Z,95305.44
2023-02-09T19:16:40.915Z,95270.59
2023-02-09T19:19:13.273Z,95245.53
2023-02-09T19:21:39.665Z,95252.38
2023-02-09T19:24:06.312Z,95285.22
2023-02-09T19:26:32.769Z,95257.97
2023-02-09T19:28:59.155Z,95269.38
2023-02-09T19:31:29.666Z,95274.97
2023-02-09T19:33:57.157Z,95275.38
2023-02-09T19:36:24.430Z,95298.38
2023-02-09T19:38:50.911Z,95280.94
2023-02-09T19:41:17.391Z,95275.25
2023-02-09T19:43:43.947Z,95295.47
2023-02-09T19:46:10.558Z,95257.13
2023-02-09T19:48:41.088Z,95276.41
2023-02-09T19:51:08.349Z,95305.78
2023-02-09T19:53:35.056Z,95276.75
2023-02-09T19:56:01.598Z,95266.63
2023-02-09T19:58:28.107Z,95289.88
2023-02-09T20:00:55.972Z,95313.31
2023-02-09T20:03:24.752Z,95275.31
2023-02-09T20:05:51.467Z,95315.28
2023-02-09T20:08:20.072Z,95324.34
2023-02-09T20:10:47.304Z,95305.38
2023-02-09T20:13:15.351Z,95323.53
2023-02-09T20:15:44.478Z,95273.69
2023-02-09T20:18:16.029Z,95298.16
2023-02-09T20:20:44.275Z,95249.06
2023-02-09T20:23:10.918Z,95292.88
2023-02-09T20:25:40.778Z,95326.22
2023-02-09T20:28:13.521Z,95327.22
2023-02-09T20:30:42.420Z,95323.97
2023-02-09T20:33:10.184Z,95292.81
2023-02-09T20:35:41.060Z,95322.19
2023-02-09T20:38:09.052Z,95289.44
2023-02-09T20:40:35.832Z,95332.53
2023-02-09T20:43:21.428Z,95296.31
2023-02-09T20:46:06.483Z,95318.09
2023-02-09T20:48:33.117Z,95274.22
2023-02-09T20:50:59.646Z,95301.69
2023-02-09T20:53:26.265Z,95297.38
2023-02-09T20:55:53.824Z,95300.06
2023-02-09T20:58:21.357Z,95298.41
2023-02-09T21:00:48.317Z,95314.06
2023-02-09T21:03:16.458Z,95322.91
2023-02-09T21:05:42.929Z,95285.75
2023-02-09T21:08:10.417Z,95319.53
2023-02-09T21:10:38.619Z,95311.09
2023-02-09T21:13:06.778Z,95336.66
2023-02-09T21:15:33.871Z,95330.81
2023-02-09T21:18:00.295Z,95354.56
2023-02-09T21:20:27.066Z,95309.88
2023-02-09T21:22:53.534Z,95345.03
2023-02-09T21:25:20.044Z,95353.84
2023-02-09T21:27:46.617Z,95313.69
2023-02-09T21:30:13.637Z,95327.66
2023-02-09T21:32:40.087Z,95314.28
2023-02-09T21:35:10.051Z,95300.94
2023-02-09T21:37:38.555Z,95359.66
2023-02-09T21:40:06.672Z,95376.44
2023-02-09T21:42:33.374Z,95353.56
2023-02-09T21:44:59.891Z,95330.69
2023-02-09T21:47:28.482Z,95368.44
2023-02-09T21:49:57.214Z,95351.59
2023-02-09T21:52:24.148Z,95357.56
2023-02-09T21:54:50.974Z,95338.66
2023-02-09T21:57:17.856Z,95384.44
2023-02-09T21:59:44.250Z,95361.16
2023-02-09T22:02:16.347Z,95369.69
2023-02-09T22:04:44.981Z,95381.41
2023-02-09T22:07:11.922Z,95383.47
2023-02-09T22:09:38.605Z,95408.41
2023-02-09T22:12:05.767Z,95398.50
2023-02-09T22:14:33.081Z,95395.41
2023-02-09T22:16:59.711Z,95402.06
2023-02-09T22:19:26.381Z,95373.91
2023-02-09T22:21:52.831Z,95363.97
2023-02-09T22:24:19.357Z,95399.00
2023-02-09T22:26:46.922Z,95392.38
2023-02-09T22:29:15.193Z,95422.31
2023-02-09T22:31:42.984Z,95425.50
2023-02-09T22:34:10.511Z,95380.66
2023-02-09T22:36:37.471Z,95412.25
2023-02-09T22:39:05.693Z,95407.16
2023-02-09T22:41:32.752Z,95397.94
2023-02-09T22:44:12.403Z,95402.72
2023-02-09T22:46:40.928Z,95406.72
2023-02-09T22:49:17.473Z,95408.16
2023-02-09T22:51:45.138Z,95377.84
2023-02-09T22:54:17.400Z,95375.94
2023-02-09T22:56:44.003Z,95407.59
2023-02-09T22:59:11.791Z,95375.31
2023-02-09T23:01:38.571Z,95369.59
2023-02-09T23:04:05.106Z,95386.13
2023-02-09T23:06:31.633Z,95391.63
2023-02-09T23:09:00.491Z,95437.66
2023-02-09T23:11:28.775Z,95431.84
2023-02-09T23:14:09.197Z,95415.56
2023-02-09T23:16:37.755Z,95385.03
2023-02-09T23:19:07.115Z,95414.00
2023-02-09T23:21:39.874Z,95435.91
2023-02-09T23:24:07.264Z,95405.22
2023-02-09T23:26:33.709Z,95410.56
2023-02-09T23:29:04.058Z,95422.94
2023-02-09T23:31:30.677Z,95347.19
2023-02-09T23:33:57.340Z,95397.69
2023-02-09T23:36:27.063Z,95295.94
2023-02-09T23:38:56.172Z,95431.22
2023-02-09T23:41:23.463Z,95425.50
2023-02-09T23:43:50.807Z,95398.25
2023-02-09T23:46:21.553Z,95407.34
2023-02-09T23:48:48.811Z,95443.06
2023-02-09T23:51:19.253Z,95406.63
2023-02-09T23:53:47.189Z,95421.91
2023-02-09T23:56:15.668Z,95443.97
2023-02-09T23:58:44.812Z,95434.78
